sensor_id;sensor_type;location;lat;lon;timestamp;pressure;altitude;pressure_sealevel;temperature
20733;BMP180;10527;52.124;5.196;2023-08-21T00:00:20;102228.00;;;31.40
20733;BMP180;10527;52.124;5.196;2023-08-21T00:02:47;102230.00;;;31.40
20733;BMP180;10527;52.124;5.196;2023-08-21T00:05:14;102232.00;;;31.40
20733;BMP180;10527;52.124;5.196;2023-08-21T00:07:41;102236.00;;;31.40
20733;BMP180;10527;52.124;5.196;2023-08-21T00:10:08;102242.00;;;31.40
20733;BMP180;10527;52.124;5.196;2023-08-21T00:12:36;102233.00;;;31.30
20733;BMP180;10527;52.124;5.196;2023-08-21T00:15:10;102240.00;;;31.30
20733;BMP180;10527;52.124;5.196;2023-08-21T00:17:39;102237.00;;;31.30
20733;BMP180;10527;52.124;5.196;2023-08-21T00:20:06;102243.00;;;31.30
20733;BMP180;10527;52.124;5.196;2023-08-21T00:22:38;102243.00;;;31.30
20733;BMP180;10527;52.124;5.196;2023-08-21T00:25:05;102246.00;;;31.30
20733;BMP180;10527;52.124;5.196;2023-08-21T00:27:32;102248.00;;;31.20
20733;BMP180;10527;52.124;5.196;2023-08-21T00:30:00;102248.00;;;31.20
20733;BMP180;10527;52.124;5.196;2023-08-21T00:32:27;102242.00;;;31.20
20733;BMP180;10527;52.124;5.196;2023-08-21T00:34:54;102236.00;;;31.20
20733;BMP180;10527;52.124;5.196;2023-08-21T00:37:24;102237.00;;;31.20
20733;BMP180;10527;52.124;5.196;2023-08-21T00:39:51;102238.00;;;31.20
20733;BMP180;10527;52.124;5.196;2023-08-21T00:42:18;102237.00;;;31.20
20733;BMP180;10527;52.124;5.196;2023-08-21T00:44:44;102221.00;;;31.10
20733;BMP180;10527;52.124;5.196;2023-08-21T00:47:14;102230.00;;;31.10
20733;BMP180;10527;52.124;5.196;2023-08-21T00:49:43;102225.00;;;31.10
20733;BMP180;10527;52.124;5.196;2023-08-21T00:52:15;102222.00;;;31.10
20733;BMP180;10527;52.124;5.196;2023-08-21T00:54:43;102230.00;;;31.10
20733;BMP180;10527;52.124;5.196;2023-08-21T00:57:14;102221.00;;;31.10
20733;BMP180;10527;52.124;5.196;2023-08-21T00:59:44;102221.00;;;31.10
20733;BMP180;10527;52.124;5.196;2023-08-21T01:02:11;102219.00;;;31.00
20733;BMP180;10527;52.124;5.196;2023-08-21T01:04:38;102213.00;;;31.00
20733;BMP180;10527;52.124;5.196;2023-08-21T01:07:05;102214.00;;;31.00
20733;BMP180;10527;52.124;5.196;2023-08-21T01:09:49;102213.00;;;31.00
20733;BMP180;10527;52.124;5.196;2023-08-21T01:12:47;102210.00;;;31.00
20733;BMP180;10527;52.124;5.196;2023-08-21T01:15:19;102219.00;;;30.90
20733;BMP180;10527;52.124;5.196;2023-08-21T01:17:46;102221.00;;;30.90
20733;BMP180;10527;52.124;5.196;2023-08-21T01:20:15;102209.00;;;30.90
20733;BMP180;10527;52.124;5.196;2023-08-21T01:22:43;102210.00;;;30.90
20733;BMP180;10527;52.124;5.196;2023-08-21T01:25:16;102217.00;;;30.80
20733;BMP180;10527;52.124;5.196;2023-08-21T01:27:50;102210.00;;;30.80
20733;BMP180;10527;52.124;5.196;2023-08-21T01:30:17;102224.00;;;30.80
20733;BMP180;10527;52.124;5.196;2023-08-21T01:33:08;102223.00;;;30.80
20733;BMP180;10527;52.124;5.196;2023-08-21T01:35:38;102227.00;;;30.70
20733;BMP180;10527;52.124;5.196;2023-08-21T01:38:06;102223.00;;;30.70
20733;BMP180;10527;52.124;5.196;2023-08-21T01:40:33;102224.00;;;30.70
20733;BMP180;10527;52.124;5.196;2023-08-21T01:43:00;102232.00;;;30.70
20733;BMP180;10527;52.124;5.196;2023-08-21T01:45:27;102229.00;;;30.60
20733;BMP180;10527;52.124;5.196;2023-08-21T01:47:54;102220.00;;;30.60
20733;BMP180;10527;52.124;5.196;2023-08-21T01:50:21;102234.00;;;30.60
20733;BMP180;10527;52.124;5.196;2023-08-21T01:52:48;102232.00;;;30.60
20733;BMP180;10527;52.124;5.196;2023-08-21T01:55:14;102226.00;;;30.60
20733;BMP180;10527;52.124;5.196;2023-08-21T01:57:41;102225.00;;;30.60
20733;BMP180;10527;52.124;5.196;2023-08-21T02:00:09;102227.00;;;30.60
20733;BMP180;10527;52.124;5.196;2023-08-21T02:02:37;102232.00;;;30.50
20733;BMP180;10527;52.124;5.196;2023-08-21T02:05:05;102231.00;;;30.50
20733;BMP180;10527;52.124;5.196;2023-08-21T02:07:34;102231.00;;;30.50
20733;BMP180;10527;52.124;5.196;2023-08-21T02:10:01;102223.00;;;30.50
20733;BMP180;10527;52.124;5.196;2023-08-21T02:12:27;102230.00;;;30.50
20733;BMP180;10527;52.124;5.196;2023-08-21T02:14:54;102220.00;;;30.40
20733;BMP180;10527;52.124;5.196;2023-08-21T02:17:21;102226.00;;;30.40
20733;BMP180;10527;52.124;5.196;2023-08-21T02:19:48;102227.00;;;30.40
20733;BMP180;10527;52.124;5.196;2023-08-21T02:22:16;102227.00;;;30.40
20733;BMP180;10527;52.124;5.196;2023-08-21T02:24:45;102232.00;;;30.40
20733;BMP180;10527;52.124;5.196;2023-08-21T02:27:12;102232.00;;;30.30
20733;BMP180;10527;52.124;5.196;2023-08-21T02:29:48;102231.00;;;30.30
20733;BMP180;10527;52.124;5.196;2023-08-21T02:32:15;102231.00;;;30.30
20733;BMP180;10527;52.124;5.196;2023-08-21T02:34:41;102230.00;;;30.20
20733;BMP180;10527;52.124;5.196;2023-08-21T02:37:08;102228.00;;;30.20
20733;BMP180;10527;52.124;5.196;2023-08-21T02:39:35;102226.00;;;30.20
20733;BMP180;10527;52.124;5.196;2023-08-21T02:42:02;102228.00;;;30.20
20733;BMP180;10527;52.124;5.196;2023-08-21T02:44:32;102232.00;;;30.20
20733;BMP180;10527;52.124;5.196;2023-08-21T02:46:59;102230.00;;;30.10
20733;BMP180;10527;52.124;5.196;2023-08-21T02:49:26;102239.00;;;30.10
20733;BMP180;10527;52.124;5.196;2023-08-21T02:51:56;102236.00;;;30.10
20733;BMP180;10527;52.124;5.196;2023-08-21T02:54:22;102231.00;;;30.10
20733;BMP180;10527;52.124;5.196;2023-08-21T02:56:49;102235.00;;;30.00
20733;BMP180;10527;52.124;5.196;2023-08-21T02:59:16;102226.00;;;30.00
20733;BMP180;10527;52.124;5.196;2023-08-21T03:01:43;102222.00;;;30.00
20733;BMP180;10527;52.124;5.196;2023-08-21T03:04:10;102224.00;;;29.90
20733;BMP180;10527;52.124;5.196;2023-08-21T03:06:37;102226.00;;;29.90
20733;BMP180;10527;52.124;5.196;2023-08-21T03:09:03;102227.00;;;29.90
20733;BMP180;10527;52.124;5.196;2023-08-21T03:11:30;102230.00;;;29.90
20733;BMP180;10527;52.124;5.196;2023-08-21T03:13:57;102225.00;;;29.90
20733;BMP180;10527;52.124;5.196;2023-08-21T03:16:24;102228.00;;;29.90
20733;BMP180;10527;52.124;5.196;2023-08-21T03:18:59;102229.00;;;29.90
20733;BMP180;10527;52.124;5.196;2023-08-21T03:21:27;102222.00;;;29.80
20733;BMP180;10527;52.124;5.196;2023-08-21T03:23:57;102220.00;;;29.80
20733;BMP180;10527;52.124;5.196;2023-08-21T03:26:30;102227.00;;;29.80
20733;BMP180;10527;52.124;5.196;2023-08-21T03:28:57;102222.00;;;29.80
20733;BMP180;10527;52.124;5.196;2023-08-21T03:31:26;102221.00;;;29.80
20733;BMP180;10527;52.124;5.196;2023-08-21T03:33:59;102222.00;;;29.80
20733;BMP180;10527;52.124;5.196;2023-08-21T03:36:26;102215.00;;;29.70
20733;BMP180;10527;52.124;5.196;2023-08-21T03:39:03;102215.00;;;29.70
20733;BMP180;10527;52.124;5.196;2023-08-21T03:41:34;102220.00;;;29.70
20733;BMP180;10527;52.124;5.196;2023-08-21T03:44:01;102215.00;;;29.70
20733;BMP180;10527;52.124;5.196;2023-08-21T03:46:28;102217.00;;;29.70
20733;BMP180;10527;52.124;5.196;2023-08-21T03:48:55;102217.00;;;29.70
20733;BMP180;10527;52.124;5.196;2023-08-21T03:51:22;102216.00;;;29.60
20733;BMP180;10527;52.124;5.196;2023-08-21T03:53:50;102219.00;;;29.60
20733;BMP180;10527;52.124;5.196;2023-08-21T03:56:16;102225.00;;;29.60
20733;BMP180;10527;52.124;5.196;2023-08-21T03:58:45;102219.00;;;29.60
20733;BMP180;10527;52.124;5.196;2023-08-21T04:01:12;102220.00;;;29.60
20733;BMP180;10527;52.124;5.196;2023-08-21T04:03:41;102215.00;;;29.60
20733;BMP180;10527;52.124;5.196;2023-08-21T04:06:08;102213.00;;;29.60
20733;BMP180;10527;52.124;5.196;2023-08-21T04:08:35;102218.00;;;29.50
20733;BMP180;10527;52.124;5.196;2023-08-21T04:11:02;102222.00;;;29.50
20733;BMP180;10527;52.124;5.196;2023-08-21T04:13:29;102224.00;;;29.50
20733;BMP180;10527;52.124;5.196;2023-08-21T04:15:59;102229.00;;;29.50
20733;BMP180;10527;52.124;5.196;2023-08-21T04:18:26;102226.00;;;29.40
20733;BMP180;10527;52.124;5.196;2023-08-21T04:21:07;102231.00;;;29.40
20733;BMP180;10527;52.124;5.196;2023-08-21T04:23:35;102227.00;;;29.40
20733;BMP180;10527;52.124;5.196;2023-08-21T04:26:07;102229.00;;;29.40
20733;BMP180;10527;52.124;5.196;2023-08-21T04:28:36;102231.00;;;29.40
20733;BMP180;10527;52.124;5.196;2023-08-21T04:31:07;102233.00;;;29.40
20733;BMP180;10527;52.124;5.196;2023-08-21T04:33:34;102238.00;;;29.40
20733;BMP180;10527;52.124;5.196;2023-08-21T04:36:02;102234.00;;;29.40
20733;BMP180;10527;52.124;5.196;2023-08-21T04:38:28;102241.00;;;29.40
20733;BMP180;10527;52.124;5.196;2023-08-21T04:40:55;102233.00;;;29.40
20733;BMP180;10527;52.124;5.196;2023-08-21T04:43:22;102231.00;;;29.30
20733;BMP180;10527;52.124;5.196;2023-08-21T04:45:51;102235.00;;;29.30
20733;BMP180;10527;52.124;5.196;2023-08-21T04:48:19;102236.00;;;29.30
20733;BMP180;10527;52.124;5.196;2023-08-21T04:50:47;102232.00;;;29.30
20733;BMP180;10527;52.124;5.196;2023-08-21T04:53:14;102225.00;;;29.30
20733;BMP180;10527;52.124;5.196;2023-08-21T04:55:41;102238.00;;;29.30
20733;BMP180;10527;52.124;5.196;2023-08-21T04:58:10;102238.00;;;29.30
20733;BMP180;10527;52.124;5.196;2023-08-21T05:00:37;102241.00;;;29.30
20733;BMP180;10527;52.124;5.196;2023-08-21T05:03:09;102247.00;;;29.30
20733;BMP180;10527;52.124;5.196;2023-08-21T05:05:36;102245.00;;;29.30
20733;BMP180;10527;52.124;5.196;2023-08-21T05:08:06;102245.00;;;29.30
20733;BMP180;10527;52.124;5.196;2023-08-21T05:10:33;102247.00;;;29.30
20733;BMP180;10527;52.124;5.196;2023-08-21T05:13:00;102239.00;;;29.20
20733;BMP180;10527;52.124;5.196;2023-08-21T05:15:27;102249.00;;;29.20
20733;BMP180;10527;52.124;5.196;2023-08-21T05:17:54;102245.00;;;29.20
20733;BMP180;10527;52.124;5.196;2023-08-21T05:20:24;102241.00;;;29.20
20733;BMP180;10527;52.124;5.196;2023-08-21T05:22:58;102244.00;;;29.20
20733;BMP180;10527;52.124;5.196;2023-08-21T05:25:25;102238.00;;;29.20
20733;BMP180;10527;52.124;5.196;2023-08-21T05:27:52;102247.00;;;29.20
20733;BMP180;10527;52.124;5.196;2023-08-21T05:30:21;102249.00;;;29.20
20733;BMP180;10527;52.124;5.196;2023-08-21T05:32:48;102244.00;;;29.20
20733;BMP180;10527;52.124;5.196;2023-08-21T05:35:15;102250.00;;;29.20
20733;BMP180;10527;52.124;5.196;2023-08-21T05:37:42;102249.00;;;29.20
20733;BMP180;10527;52.124;5.196;2023-08-21T05:40:12;102255.00;;;29.20
20733;BMP180;10527;52.124;5.196;2023-08-21T05:42:39;102257.00;;;29.20
20733;BMP180;10527;52.124;5.196;2023-08-21T05:45:07;102263.00;;;29.30
20733;BMP180;10527;52.124;5.196;2023-08-21T05:47:34;102261.00;;;29.30
20733;BMP180;10527;52.124;5.196;2023-08-21T05:50:01;102254.00;;;29.30
20733;BMP180;10527;52.124;5.196;2023-08-21T05:52:28;102253.00;;;29.30
20733;BMP180;10527;52.124;5.196;2023-08-21T05:54:55;102255.00;;;29.30
20733;BMP180;10527;52.124;5.196;2023-08-21T05:57:22;102253.00;;;29.30
20733;BMP180;10527;52.124;5.196;2023-08-21T05:59:49;102249.00;;;29.30
20733;BMP180;10527;52.124;5.196;2023-08-21T06:02:19;102255.00;;;29.30
20733;BMP180;10527;52.124;5.196;2023-08-21T06:04:49;102255.00;;;29.40
20733;BMP180;10527;52.124;5.196;2023-08-21T06:07:23;102255.00;;;29.40
20733;BMP180;10527;52.124;5.196;2023-08-21T06:09:50;102261.00;;;29.40
20733;BMP180;10527;52.124;5.196;2023-08-21T06:12:18;102261.00;;;29.40
20733;BMP180;10527;52.124;5.196;2023-08-21T06:14:45;102257.00;;;29.40
20733;BMP180;10527;52.124;5.196;2023-08-21T06:17:12;102252.00;;;29.50
20733;BMP180;10527;52.124;5.196;2023-08-21T06:19:41;102255.00;;;29.50
20733;BMP180;10527;52.124;5.196;2023-08-21T06:22:08;102259.00;;;29.50
20733;BMP180;10527;52.124;5.196;2023-08-21T06:24:34;102261.00;;;29.50
20733;BMP180;10527;52.124;5.196;2023-08-21T06:27:01;102268.00;;;29.50
20733;BMP180;10527;52.124;5.196;2023-08-21T06:29:34;102257.00;;;29.60
20733;BMP180;10527;52.124;5.196;2023-08-21T06:32:01;102266.00;;;29.60
20733;BMP180;10527;52.124;5.196;2023-08-21T06:34:31;102267.00;;;29.60
20733;BMP180;10527;52.124;5.196;2023-08-21T06:37:00;102268.00;;;29.60
20733;BMP180;10527;52.124;5.196;2023-08-21T06:39:34;102267.00;;;29.70
20733;BMP180;10527;52.124;5.196;2023-08-21T06:42:02;102273.00;;;29.70
20733;BMP180;10527;52.124;5.196;2023-08-21T06:44:28;102274.00;;;29.70
20733;BMP180;10527;52.124;5.196;2023-08-21T06:46:58;102273.00;;;29.80
20733;BMP180;10527;52.124;5.196;2023-08-21T06:49:25;102267.00;;;29.80
20733;BMP180;10527;52.124;5.196;2023-08-21T06:51:52;102273.00;;;29.80
20733;BMP180;10527;52.124;5.196;2023-08-21T06:54:19;102271.00;;;29.90
20733;BMP180;10527;52.124;5.196;2023-08-21T06:56:46;102271.00;;;30.00
20733;BMP180;10527;52.124;5.196;2023-08-21T06:59:13;102269.00;;;30.00
20733;BMP180;10527;52.124;5.196;2023-08-21T07:01:42;102277.00;;;30.10
20733;BMP180;10527;52.124;5.196;2023-08-21T07:04:09;102274.00;;;30.20
20733;BMP180;10527;52.124;5.196;2023-08-21T07:06:36;102281.00;;;30.20
20733;BMP180;10527;52.124;5.196;2023-08-21T07:09:03;102280.00;;;30.30
20733;BMP180;10527;52.124;5.196;2023-08-21T07:11:30;102267.00;;;30.30
20733;BMP180;10527;52.124;5.196;2023-08-21T07:14:04;102265.00;;;30.40
20733;BMP180;10527;52.124;5.196;2023-08-21T07:16:31;102276.00;;;30.50
20733;BMP180;10527;52.124;5.196;2023-08-21T07:18:58;102280.00;;;30.60
20733;BMP180;10527;52.124;5.196;2023-08-21T07:21:25;102269.00;;;30.60
20733;BMP180;10527;52.124;5.196;2023-08-21T07:24:02;102271.00;;;30.70
20733;BMP180;10527;52.124;5.196;2023-08-21T07:26:32;102279.00;;;30.70
20733;BMP180;10527;52.124;5.196;2023-08-21T07:28:59;102282.00;;;30.70
20733;BMP180;10527;52.124;5.196;2023-08-21T07:31:26;102285.00;;;30.80
20733;BMP180;10527;52.124;5.196;2023-08-21T07:33:53;102281.00;;;30.80
20733;BMP180;10527;52.124;5.196;2023-08-21T07:36:20;102275.00;;;30.80
20733;BMP180;10527;52.124;5.196;2023-08-21T07:38:47;102283.00;;;30.90
20733;BMP180;10527;52.124;5.196;2023-08-21T07:41:17;102286.00;;;30.90
20733;BMP180;10527;52.124;5.196;2023-08-21T07:43:46;102284.00;;;31.00
20733;BMP180;10527;52.124;5.196;2023-08-21T07:46:13;102279.00;;;31.00
20733;BMP180;10527;52.124;5.196;2023-08-21T07:48:46;102283.00;;;31.10
20733;BMP180;10527;52.124;5.196;2023-08-21T07:51:13;102287.00;;;31.10
20733;BMP180;10527;52.124;5.196;2023-08-21T07:53:41;102291.00;;;31.20
20733;BMP180;10527;52.124;5.196;2023-08-21T07:56:07;102290.00;;;31.20
20733;BMP180;10527;52.124;5.196;2023-08-21T07:58:34;102285.00;;;31.30
20733;BMP180;10527;52.124;5.196;2023-08-21T08:01:01;102296.00;;;31.40
20733;BMP180;10527;52.124;5.196;2023-08-21T08:03:28;102288.00;;;31.40
20733;BMP180;10527;52.124;5.196;2023-08-21T08:05:55;102286.00;;;31.50
20733;BMP180;10527;52.124;5.196;2023-08-21T08:08:23;102279.00;;;31.50
20733;BMP180;10527;52.124;5.196;2023-08-21T08:10:50;102291.00;;;31.60
20733;BMP180;10527;52.124;5.196;2023-08-21T08:13:17;102293.00;;;31.60
20733;BMP180;10527;52.124;5.196;2023-08-21T08:15:43;102299.00;;;31.70
20733;BMP180;10527;52.124;5.196;2023-08-21T08:18:13;102305.00;;;31.80
20733;BMP180;10527;52.124;5.196;2023-08-21T08:20:41;102300.00;;;32.00
20733;BMP180;10527;52.124;5.196;2023-08-21T08:23:08;102299.00;;;32.20
20733;BMP180;10527;52.124;5.196;2023-08-21T08:25:35;102292.00;;;32.50
20733;BMP180;10527;52.124;5.196;2023-08-21T08:28:02;102293.00;;;32.90
20733;BMP180;10527;52.124;5.196;2023-08-21T08:30:29;102303.00;;;33.20
20733;BMP180;10527;52.124;5.196;2023-08-21T08:32:56;102295.00;;;33.50
20733;BMP180;10527;52.124;5.196;2023-08-21T08:35:23;102296.00;;;33.80
20733;BMP180;10527;52.124;5.196;2023-08-21T08:37:50;102299.00;;;34.10
20733;BMP180;10527;52.124;5.196;2023-08-21T08:40:17;102307.00;;;34.30
20733;BMP180;10527;52.124;5.196;2023-08-21T08:42:44;102307.00;;;34.60
20733;BMP180;10527;52.124;5.196;2023-08-21T08:45:13;102300.00;;;34.80
20733;BMP180;10527;52.124;5.196;2023-08-21T08:47:44;102313.00;;;35.00
20733;BMP180;10527;52.124;5.196;2023-08-21T08:50:13;102311.00;;;35.20
20733;BMP180;10527;52.124;5.196;2023-08-21T08:52:41;102306.00;;;35.40
20733;BMP180;10527;52.124;5.196;2023-08-21T08:55:08;102299.00;;;35.60
20733;BMP180;10527;52.124;5.196;2023-08-21T08:57:35;102308.00;;;35.80
20733;BMP180;10527;52.124;5.196;2023-08-21T09:00:03;102303.00;;;36.00
20733;BMP180;10527;52.124;5.196;2023-08-21T09:02:31;102302.00;;;36.10
20733;BMP180;10527;52.124;5.196;2023-08-21T09:04:58;102293.00;;;36.20
20733;BMP180;10527;52.124;5.196;2023-08-21T09:07:27;102300.00;;;36.30
20733;BMP180;10527;52.124;5.196;2023-08-21T09:10:02;102304.00;;;36.40
20733;BMP180;10527;52.124;5.196;2023-08-21T09:12:32;102297.00;;;36.50
20733;BMP180;10527;52.124;5.196;2023-08-21T09:15:07;102296.00;;;36.60
20733;BMP180;10527;52.124;5.196;2023-08-21T09:17:35;102307.00;;;36.60
20733;BMP180;10527;52.124;5.196;2023-08-21T09:20:07;102303.00;;;36.60
20733;BMP180;10527;52.124;5.196;2023-08-21T09:22:40;102304.00;;;36.60
20733;BMP180;10527;52.124;5.196;2023-08-21T09:25:07;102299.00;;;36.60
20733;BMP180;10527;52.124;5.196;2023-08-21T09:27:39;102305.00;;;36.60
20733;BMP180;10527;52.124;5.196;2023-08-21T09:30:11;102301.00;;;36.60
20733;BMP180;10527;52.124;5.196;2023-08-21T09:33:00;102304.00;;;36.50
20733;BMP180;10527;52.124;5.196;2023-08-21T09:35:27;102297.00;;;36.50
20733;BMP180;10527;52.124;5.196;2023-08-21T09:37:54;102292.00;;;36.50
20733;BMP180;10527;52.124;5.196;2023-08-21T09:40:24;102284.00;;;36.50
20733;BMP180;10527;52.124;5.196;2023-08-21T09:42:58;102292.00;;;36.50
20733;BMP180;10527;52.124;5.196;2023-08-21T09:45:27;102290.00;;;36.50
20733;BMP180;10527;52.124;5.196;2023-08-21T09:47:56;102285.00;;;36.50
20733;BMP180;10527;52.124;5.196;2023-08-21T09:50:29;102289.00;;;36.40
20733;BMP180;10527;52.124;5.196;2023-08-21T09:52:57;102280.00;;;36.40
20733;BMP180;10527;52.124;5.196;2023-08-21T09:55:31;102282.00;;;36.40
20733;BMP180;10527;52.124;5.196;2023-08-21T09:57:59;102290.00;;;36.40
20733;BMP180;10527;52.124;5.196;2023-08-21T10:00:32;102287.00;;;36.40
20733;BMP180;10527;52.124;5.196;2023-08-21T10:03:06;102287.00;;;36.40
20733;BMP180;10527;52.124;5.196;2023-08-21T10:05:36;102279.00;;;36.40
20733;BMP180;10527;52.124;5.196;2023-08-21T10:08:06;102286.00;;;36.30
20733;BMP180;10527;52.124;5.196;2023-08-21T10:10:37;102280.00;;;36.30
20733;BMP180;10527;52.124;5.196;2023-08-21T10:13:08;102273.00;;;36.20
20733;BMP180;10527;52.124;5.196;2023-08-21T10:15:39;102268.00;;;36.20
20733;BMP180;10527;52.124;5.196;2023-08-21T10:18:34;102275.00;;;36.20
20733;BMP180;10527;52.124;5.196;2023-08-21T10:21:20;102268.00;;;36.10
20733;BMP180;10527;52.124;5.196;2023-08-21T10:23:51;102275.00;;;36.10
20733;BMP180;10527;52.124;5.196;2023-08-21T10:26:22;102263.00;;;36.10
20733;BMP180;10527;52.124;5.196;2023-08-21T10:28:57;102276.00;;;36.10
20733;BMP180;10527;52.124;5.196;2023-08-21T10:31:36;102267.00;;;36.10
20733;BMP180;10527;52.124;5.196;2023-08-21T10:34:11;102275.00;;;36.20
20733;BMP180;10527;52.124;5.196;2023-08-21T10:39:20;102285.00;;;36.30
20733;BMP180;10527;52.124;5.196;2023-08-21T10:42:06;102287.00;;;36.30
20733;BMP180;10527;52.124;5.196;2023-08-21T10:47:18;102288.00;;;36.30
20733;BMP180;10527;52.124;5.196;2023-08-21T10:49:47;102280.00;;;36.40
20733;BMP180;10527;52.124;5.196;2023-08-21T10:52:41;102278.00;;;36.40
20733;BMP180;10527;52.124;5.196;2023-08-21T10:55:16;102271.00;;;36.40
20733;BMP180;10527;52.124;5.196;2023-08-21T10:57:49;102267.00;;;36.50
20733;BMP180;10527;52.124;5.196;2023-08-21T11:00:19;102269.00;;;36.50
20733;BMP180;10527;52.124;5.196;2023-08-21T11:02:49;102274.00;;;36.50
20733;BMP180;10527;52.124;5.196;2023-08-21T11:05:19;102277.00;;;36.50
20733;BMP180;10527;52.124;5.196;2023-08-21T11:07:47;102273.00;;;36.50
20733;BMP180;10527;52.124;5.196;2023-08-21T11:10:17;102273.00;;;36.60
20733;BMP180;10527;52.124;5.196;2023-08-21T11:12:54;102272.00;;;36.60
20733;BMP180;10527;52.124;5.196;2023-08-21T11:15:28;102269.00;;;36.60
20733;BMP180;10527;52.124;5.196;2023-08-21T11:18:05;102260.00;;;36.70
20733;BMP180;10527;52.124;5.196;2023-08-21T11:20:36;102266.00;;;36.70
20733;BMP180;10527;52.124;5.196;2023-08-21T11:23:05;102254.00;;;36.70
20733;BMP180;10527;52.124;5.196;2023-08-21T11:25:39;102257.00;;;36.70
20733;BMP180;10527;52.124;5.196;2023-08-21T11:28:09;102259.00;;;36.70
20733;BMP180;10527;52.124;5.196;2023-08-21T11:30:36;102261.00;;;36.70
20733;BMP180;10527;52.124;5.196;2023-08-21T11:33:12;102266.00;;;36.60
20733;BMP180;10527;52.124;5.196;2023-08-21T11:35:40;102268.00;;;36.50
20733;BMP180;10527;52.124;5.196;2023-08-21T11:38:18;102266.00;;;36.50
20733;BMP180;10527;52.124;5.196;2023-08-21T11:41:00;102265.00;;;36.50
20733;BMP180;10527;52.124;5.196;2023-08-21T11:43:35;102274.00;;;36.50
20733;BMP180;10527;52.124;5.196;2023-08-21T11:46:07;102261.00;;;36.50
20733;BMP180;10527;52.124;5.196;2023-08-21T11:48:38;102260.00;;;36.60
20733;BMP180;10527;52.124;5.196;2023-08-21T11:51:05;102257.00;;;36.60
20733;BMP180;10527;52.124;5.196;2023-08-21T11:53:51;102263.00;;;36.70
20733;BMP180;10527;52.124;5.196;2023-08-21T11:56:18;102261.00;;;36.70
20733;BMP180;10527;52.124;5.196;2023-08-21T11:58:49;102260.00;;;36.70
20733;BMP180;10527;52.124;5.196;2023-08-21T12:01:19;102254.00;;;36.80
20733;BMP180;10527;52.124;5.196;2023-08-21T12:03:46;102250.00;;;36.80
20733;BMP180;10527;52.124;5.196;2023-08-21T12:06:22;102256.00;;;36.90
20733;BMP180;10527;52.124;5.196;2023-08-21T12:08:49;102250.00;;;37.00
20733;BMP180;10527;52.124;5.196;2023-08-21T12:11:16;102255.00;;;37.00
20733;BMP180;10527;52.124;5.196;2023-08-21T12:13:43;102255.00;;;37.10
20733;BMP180;10527;52.124;5.196;2023-08-21T12:16:13;102242.00;;;37.10
20733;BMP180;10527;52.124;5.196;2023-08-21T12:18:40;102243.00;;;37.10
20733;BMP180;10527;52.124;5.196;2023-08-21T12:21:09;102232.00;;;37.20
20733;BMP180;10527;52.124;5.196;2023-08-21T12:23:36;102237.00;;;37.20
20733;BMP180;10527;52.124;5.196;2023-08-21T12:26:02;102244.00;;;37.20
20733;BMP180;10527;52.124;5.196;2023-08-21T12:28:29;102240.00;;;37.20
20733;BMP180;10527;52.124;5.196;2023-08-21T12:30:57;102239.00;;;37.10
20733;BMP180;10527;52.124;5.196;2023-08-21T12:33:23;102242.00;;;37.20
20733;BMP180;10527;52.124;5.196;2023-08-21T12:35:51;102239.00;;;37.10
20733;BMP180;10527;52.124;5.196;2023-08-21T12:38:20;102243.00;;;37.10
20733;BMP180;10527;52.124;5.196;2023-08-21T12:40:50;102235.00;;;37.00
20733;BMP180;10527;52.124;5.196;2023-08-21T12:43:26;102237.00;;;37.00
20733;BMP180;10527;52.124;5.196;2023-08-21T12:45:53;102235.00;;;36.90
20733;BMP180;10527;52.124;5.196;2023-08-21T12:48:20;102237.00;;;36.80
20733;BMP180;10527;52.124;5.196;2023-08-21T12:50:47;102240.00;;;36.70
20733;BMP180;10527;52.124;5.196;2023-08-21T12:53:14;102236.00;;;36.70
20733;BMP180;10527;52.124;5.196;2023-08-21T12:55:41;102242.00;;;36.60
20733;BMP180;10527;52.124;5.196;2023-08-21T12:58:08;102241.00;;;36.50
20733;BMP180;10527;52.124;5.196;2023-08-21T13:00:38;102237.00;;;36.50
20733;BMP180;10527;52.124;5.196;2023-08-21T13:03:11;102235.00;;;36.50
20733;BMP180;10527;52.124;5.196;2023-08-21T13:05:40;102232.00;;;36.50
20733;BMP180;10527;52.124;5.196;2023-08-21T13:08:07;102231.00;;;36.50
20733;BMP180;10527;52.124;5.196;2023-08-21T13:10:37;102233.00;;;36.50
20733;BMP180;10527;52.124;5.196;2023-08-21T13:13:04;102228.00;;;36.50
20733;BMP180;10527;52.124;5.196;2023-08-21T13:15:31;102231.00;;;36.50
20733;BMP180;10527;52.124;5.196;2023-08-21T13:17:58;102219.00;;;36.60
20733;BMP180;10527;52.124;5.196;2023-08-21T13:20:25;102220.00;;;36.70
20733;BMP180;10527;52.124;5.196;2023-08-21T13:22:52;102222.00;;;36.70
20733;BMP180;10527;52.124;5.196;2023-08-21T13:25:22;102222.00;;;36.80
20733;BMP180;10527;52.124;5.196;2023-08-21T13:27:52;102222.00;;;36.90
20733;BMP180;10527;52.124;5.196;2023-08-21T13:30:19;102222.00;;;36.90
20733;BMP180;10527;52.124;5.196;2023-08-21T13:32:52;102220.00;;;37.00
20733;BMP180;10527;52.124;5.196;2023-08-21T13:35:22;102223.00;;;37.00
20733;BMP180;10527;52.124;5.196;2023-08-21T13:37:50;102222.00;;;37.10
20733;BMP180;10527;52.124;5.196;2023-08-21T13:40:17;102224.00;;;37.10
20733;BMP180;10527;52.124;5.196;2023-08-21T13:42:47;102222.00;;;37.20
20733;BMP180;10527;52.124;5.196;2023-08-21T13:45:17;102220.00;;;37.20
20733;BMP180;10527;52.124;5.196;2023-08-21T13:47:49;102210.00;;;37.20
20733;BMP180;10527;52.124;5.196;2023-08-21T13:50:22;102212.00;;;37.30
20733;BMP180;10527;52.124;5.196;2023-08-21T13:52:49;102219.00;;;37.30
20733;BMP180;10527;52.124;5.196;2023-08-21T13:55:17;102213.00;;;37.30
20733;BMP180;10527;52.124;5.196;2023-08-21T13:57:44;102221.00;;;37.30
20733;BMP180;10527;52.124;5.196;2023-08-21T14:00:12;102209.00;;;37.20
20733;BMP180;10527;52.124;5.196;2023-08-21T14:02:42;102221.00;;;37.20
20733;BMP180;10527;52.124;5.196;2023-08-21T14:05:11;102217.00;;;37.10
20733;BMP180;10527;52.124;5.196;2023-08-21T14:07:38;102210.00;;;37.10
20733;BMP180;10527;52.124;5.196;2023-08-21T14:10:07;102217.00;;;37.10
20733;BMP180;10527;52.124;5.196;2023-08-21T14:12:37;102204.00;;;37.10